createdAt,value
2019-01-21T00:00:36.312Z,90.61
2019-01-21T00:01:36.281Z,91.24
2019-01-21T00:02:36.272Z,91.24
2019-01-21T00:03:36.262Z,91.66
2019-01-21T00:04:36.250Z,91.13
2019-01-21T00:05:36.240Z,90.78
2019-01-21T00:06:36.235Z,91.13
2019-01-21T00:07:36.219Z,90.92
2019-01-21T00:08:36.208Z,91.55
2019-01-21T00:09:36.197Z,91.66
2019-01-21T00:10:36.188Z,91.87
2019-01-21T00:11:36.180Z,91.41
2019-01-21T00:12:36.167Z,91.55
2019-01-21T00:13:36.156Z,90.61
2019-01-21T00:14:36.145Z,90.40
2019-01-21T00:15:36.145Z,90.71
2019-01-21T00:16:36.126Z,90.19
2019-01-21T00:17:36.116Z,90.19
2019-01-21T00:18:36.105Z,90.50
2019-01-21T00:19:36.097Z,90.50
2019-01-21T00:20:36.082Z,90.19
2019-01-21T00:21:36.071Z,90.61
2019-01-21T00:22:36.061Z,90.61
2019-01-21T00:23:36.050Z,90.92
2019-01-21T00:24:36.041Z,91.03
2019-01-21T00:25:36.030Z,90.71
2019-01-21T00:26:36.024Z,90.19
2019-01-21T00:27:36.008Z,90.82
2019-01-21T00:28:35.999Z,90.50
2019-01-21T00:29:35.988Z,91.24
2019-01-21T00:30:35.976Z,90.92
2019-01-21T00:31:35.967Z,91.13
2019-01-21T00:32:35.958Z,90.82
2019-01-21T00:33:35.947Z,90.82
2019-01-21T00:34:35.935Z,91.13
2019-01-21T00:35:35.926Z,90.19
2019-01-21T00:36:35.916Z,90.29
2019-01-21T00:37:35.905Z,90.29
2019-01-21T00:38:35.896Z,90.29
2019-01-21T00:39:37.225Z,90.29
2019-01-21T00:40:35.872Z,90.50
2019-01-21T00:41:35.862Z,90.50
2019-01-21T00:42:35.850Z,90.25
2019-01-21T00:43:35.843Z,90.92
2019-01-21T00:44:35.830Z,90.92
2019-01-21T00:45:35.820Z,90.92
2019-01-21T00:46:35.814Z,91.13
2019-01-21T00:47:35.799Z,91.24
2019-01-21T00:48:35.788Z,91.13
2019-01-21T00:49:35.777Z,90.88
2019-01-21T00:50:35.768Z,91.03
2019-01-21T00:51:35.759Z,91.30
2019-01-21T00:52:35.751Z,91.45
2019-01-21T00:53:35.738Z,91.66
2019-01-21T00:54:35.725Z,90.92
2019-01-21T00:55:35.716Z,91.77
2019-01-21T00:56:35.705Z,91.41
2019-01-21T00:57:35.695Z,90.92
2019-01-21T00:58:35.683Z,91.35
2019-01-21T00:59:35.672Z,91.03
2019-01-21T01:00:35.665Z,91.55
2019-01-21T01:01:35.657Z,91.45
2019-01-21T01:02:35.640Z,91.45
2019-01-21T01:03:35.633Z,91.41
2019-01-21T01:04:35.728Z,91.55
2019-01-21T01:05:35.611Z,91.83
2019-01-21T01:06:35.601Z,91.51
2019-01-21T01:07:35.590Z,91.41
2019-01-21T01:08:35.579Z,91.55
2019-01-21T01:09:35.569Z,91.87
2019-01-21T01:10:35.569Z,92.04
2019-01-21T01:11:35.549Z,91.09
2019-01-21T01:12:35.538Z,91.20
2019-01-21T01:13:35.526Z,91.20
2019-01-21T01:14:35.517Z,91.87
2019-01-21T01:15:35.505Z,91.20
2019-01-21T01:16:35.505Z,91.09
2019-01-21T01:17:37.294Z,91.30
2019-01-21T01:18:35.474Z,90.88
2019-01-21T01:19:35.463Z,91.41
2019-01-21T01:20:35.454Z,91.41
2019-01-21T01:21:35.443Z,91.51
2019-01-21T01:22:35.430Z,91.51
2019-01-21T01:23:35.424Z,91.41
2019-01-21T01:24:35.411Z,92.04
2019-01-21T01:25:35.403Z,91.51
2019-01-21T01:26:35.391Z,91.20
2019-01-21T01:27:35.381Z,91.83
2019-01-21T01:28:35.369Z,91.72
2019-01-21T01:29:35.358Z,91.62
2019-01-21T01:30:35.350Z,92.46
2019-01-21T01:31:35.343Z,92.04
2019-01-21T01:32:35.327Z,92.14
2019-01-21T01:33:35.320Z,91.93
2019-01-21T01:34:35.318Z,91.62
2019-01-21T01:35:35.297Z,91.51
2019-01-21T01:36:35.287Z,91.41
2019-01-21T01:37:35.275Z,91.51
2019-01-21T01:38:35.268Z,91.09
2019-01-21T01:39:35.256Z,91.30
2019-01-21T01:40:35.245Z,91.51
2019-01-21T01:41:35.235Z,91.62
2019-01-21T01:42:35.223Z,91.51
2019-01-21T01:43:35.213Z,91.30
2019-01-21T01:44:35.204Z,91.62
2019-01-21T01:45:35.192Z,91.51
2019-01-21T01:46:35.185Z,91.51
2019-01-21T01:47:35.176Z,91.51
2019-01-21T01:48:35.161Z,91.62
2019-01-21T01:49:35.151Z,91.20
2019-01-21T01:50:35.141Z,90.88
2019-01-21T01:51:35.131Z,91.83
2019-01-21T01:52:35.121Z,91.72
2019-01-21T01:53:35.107Z,91.62
2019-01-21T01:54:35.098Z,90.99
2019-01-21T01:55:35.090Z,90.88
2019-01-21T01:56:35.079Z,91.30
2019-01-21T01:57:35.067Z,91.62
2019-01-21T01:58:35.057Z,91.09
2019-01-21T01:59:35.051Z,91.83
2019-01-21T02:00:35.037Z,91.51
2019-01-21T02:01:35.027Z,92.35
2019-01-21T02:02:35.014Z,92.46
2019-01-21T02:03:35.005Z,92.04
2019-01-21T02:04:34.995Z,91.30
2019-01-21T02:05:34.983Z,91.51
2019-01-21T02:06:34.973Z,91.62
2019-01-21T02:07:34.965Z,91.41
2019-01-21T02:08:34.951Z,91.20
2019-01-21T02:09:34.942Z,91.30
2019-01-21T02:10:34.930Z,91.30
2019-01-21T02:11:34.923Z,91.83
2019-01-21T02:12:34.911Z,91.41
2019-01-21T02:13:34.905Z,91.83
2019-01-21T02:14:34.890Z,91.83
2019-01-21T02:15:34.881Z,91.83
2019-01-21T02:16:34.869Z,92.04
2019-01-21T02:17:34.858Z,91.51
2019-01-21T02:18:34.853Z,91.51
2019-01-21T02:19:34.845Z,91.62
2019-01-21T02:20:34.828Z,91.41
2019-01-21T02:21:34.820Z,91.83
2019-01-21T02:22:34.808Z,91.30
2019-01-21T02:23:34.795Z,91.30
2019-01-21T02:24:34.787Z,91.51
2019-01-21T02:25:34.773Z,91.51
2019-01-21T02:26:34.764Z,91.62
2019-01-21T02:27:34.759Z,91.41
2019-01-21T02:28:34.743Z,91.30
2019-01-21T02:29:34.735Z,91.30
2019-01-21T02:30:34.724Z,91.62
2019-01-21T02:31:34.717Z,91.41
2019-01-21T02:32:34.705Z,91.35
2019-01-21T02:33:34.692Z,91.62
2019-01-21T02:34:34.681Z,91.30
2019-01-21T02:35:34.669Z,91.20
2019-01-21T02:36:34.661Z,91.55
2019-01-21T02:37:34.649Z,91.35
2019-01-21T02:38:34.638Z,90.88
2019-01-21T02:39:34.630Z,91.03
2019-01-21T02:40:34.621Z,91.66
2019-01-21T02:41:34.608Z,91.24
2019-01-21T02:42:34.599Z,91.55
2019-01-21T02:43:34.590Z,90.92
2019-01-21T02:44:34.577Z,91.35
2019-01-21T02:45:34.570Z,91.24
2019-01-21T02:46:34.554Z,91.77
2019-01-21T02:47:34.545Z,91.45
2019-01-21T02:48:34.535Z,91.81
2019-01-21T02:49:34.524Z,91.55
2019-01-21T02:50:34.514Z,91.70
2019-01-21T02:51:34.505Z,91.70
2019-01-21T02:52:34.493Z,91.60
2019-01-21T02:53:34.485Z,91.66
2019-01-21T02:54:34.484Z,91.81
2019-01-21T02:55:34.461Z,91.49
2019-01-21T02:56:34.450Z,91.60
2019-01-21T02:57:34.442Z,91.70
2019-01-21T02:58:34.432Z,91.39
2019-01-21T02:59:34.423Z,91.91
2019-01-21T03:00:34.412Z,91.17
2019-01-21T03:01:34.400Z,91.70
2019-01-21T03:02:34.391Z,91.49
2019-01-21T03:03:34.379Z,91.17
2019-01-21T03:04:34.370Z,91.49
2019-01-21T03:05:34.358Z,91.85
2019-01-21T03:06:34.347Z,91.81
2019-01-21T03:07:34.335Z,91.74
2019-01-21T03:08:34.326Z,91.42
2019-01-21T03:09:34.321Z,91.96
2019-01-21T03:10:34.305Z,91.74
2019-01-21T03:11:34.294Z,91.85
2019-01-21T03:12:34.371Z,92.16
2019-01-21T03:13:34.273Z,91.53
2019-01-21T03:14:34.262Z,92.48
2019-01-21T03:15:34.254Z,92.58
2019-01-21T03:16:34.242Z,91.74
2019-01-21T03:17:34.232Z,91.32
2019-01-21T03:18:34.223Z,91.42
2019-01-21T03:19:34.210Z,92.27
2019-01-21T03:20:34.201Z,91.53
2019-01-21T03:21:34.196Z,92.16
2019-01-21T03:22:34.180Z,91.85
2019-01-21T03:23:34.170Z,92.06
2019-01-21T03:24:34.160Z,92.48
2019-01-21T03:25:34.148Z,92.38
2019-01-21T03:26:34.138Z,92.58
2019-01-21T03:27:34.130Z,91.64
2019-01-21T03:28:34.116Z,92.16
2019-01-21T03:29:34.109Z,92.38
2019-01-21T03:30:34.103Z,92.16
2019-01-21T03:31:34.097Z,92.27
2019-01-21T03:32:34.076Z,92.06
2019-01-21T03:33:34.070Z,92.58
2019-01-21T03:34:34.056Z,92.80
2019-01-21T03:35:34.098Z,92.23
2019-01-21T03:36:34.036Z,92.16
2019-01-21T03:37:34.025Z,92.58
2019-01-21T03:38:34.018Z,92.27
2019-01-21T03:39:34.007Z,92.27
2019-01-21T03:40:33.992Z,92.38
2019-01-21T03:41:33.981Z,92.16
2019-01-21T03:42:34.030Z,92.38
2019-01-21T03:43:33.963Z,92.27
2019-01-21T03:44:33.954Z,92.27
2019-01-21T03:45:33.943Z,92.16
2019-01-21T03:46:33.930Z,92.69
2019-01-21T03:47:33.918Z,92.90
2019-01-21T03:48:33.910Z,92.27
2019-01-21T03:49:33.900Z,92.27
2019-01-21T03:50:33.891Z,92.27
2019-01-21T03:51:33.879Z,92.23
2019-01-21T03:52:33.872Z,92.33
2019-01-21T03:53:33.857Z,92.23
2019-01-21T03:54:33.847Z,92.12
2019-01-21T03:55:33.836Z,92.38
2019-01-21T03:56:33.824Z,92.27
2019-01-21T03:57:33.814Z,92.33
2019-01-21T03:58:33.850Z,92.44
2019-01-21T03:59:33.793Z,92.54
2019-01-21T04:00:33.793Z,92.86
2019-01-21T04:01:33.784Z,92.54
2019-01-21T04:02:33.762Z,92.96
2019-01-21T04:03:33.760Z,92.44
2019-01-21T04:04:34.135Z,92.23
2019-01-21T04:05:33.733Z,92.58
2019-01-21T04:06:33.726Z,92.38
2019-01-21T04:07:33.710Z,92.44
2019-01-21T04:08:33.700Z,92.54
2019-01-21T04:09:33.692Z,92.54
2019-01-21T04:10:33.680Z,92.44
2019-01-21T04:11:33.669Z,92.27
2019-01-21T04:12:33.657Z,92.27
2019-01-21T04:13:33.649Z,92.12
2019-01-21T04:14:33.698Z,92.27
2019-01-21T04:15:33.626Z,92.44
2019-01-21T04:16:33.618Z,92.02
2019-01-21T04:17:33.607Z,92.44
2019-01-21T04:18:33.602Z,92.76
2019-01-21T04:19:33.585Z,92.65
2019-01-21T04:20:33.579Z,92.44
2019-01-21T04:21:33.566Z,92.38
2019-01-21T04:22:33.553Z,92.33
2019-01-21T04:23:33.545Z,92.76
2019-01-21T04:24:33.541Z,92.16
2019-01-21T04:25:33.523Z,92.12
2019-01-21T04:26:33.514Z,92.58
2019-01-21T04:27:33.501Z,92.48
2019-01-21T04:28:33.493Z,92.27
2019-01-21T04:29:33.484Z,92.16
2019-01-21T04:30:33.470Z,92.27
2019-01-21T04:31:33.462Z,92.27
2019-01-21T04:32:33.448Z,92.27
2019-01-21T04:33:33.447Z,92.27
2019-01-21T04:34:33.428Z,92.38
2019-01-21T04:35:33.421Z,92.48
2019-01-21T04:36:33.440Z,92.90
2019-01-21T04:37:34.477Z,92.58
2019-01-21T04:38:33.401Z,92.27
2019-01-21T04:39:33.379Z,92.48
2019-01-21T04:40:33.366Z,92.16
2019-01-21T04:41:33.355Z,92.58
2019-01-21T04:42:33.343Z,92.38
2019-01-21T04:43:33.339Z,92.27
2019-01-21T04:44:33.323Z,92.16
2019-01-21T04:45:33.315Z,91.74
2019-01-21T04:46:33.304Z,92.38
2019-01-21T04:47:33.292Z,92.48
2019-01-21T04:48:33.349Z,92.27
2019-01-21T04:49:33.279Z,92.16
2019-01-21T04:50:33.262Z,92.27
2019-01-21T04:51:33.251Z,92.58
2019-01-21T04:52:33.242Z,92.58
2019-01-21T04:53:33.232Z,92.27
2019-01-21T04:54:33.219Z,92.06
2019-01-21T04:55:33.211Z,92.48
2019-01-21T04:56:33.199Z,92.38
2019-01-21T04:57:33.188Z,92.38
2019-01-21T04:58:33.186Z,92.06
2019-01-21T04:59:33.174Z,92.27
2019-01-21T05:00:33.156Z,92.27
2019-01-21T05:01:33.151Z,92.16
2019-01-21T05:02:33.135Z,92.27
2019-01-21T05:03:33.124Z,92.69
2019-01-21T05:04:33.117Z,92.58
2019-01-21T05:05:33.115Z,93.01
2019-01-21T05:06:33.098Z,92.90
2019-01-21T05:07:33.085Z,93.22
2019-01-21T05:08:33.077Z,92.58
2019-01-21T05:09:33.062Z,93.11
2019-01-21T05:10:33.060Z,93.01
2019-01-21T05:11:33.044Z,92.80
2019-01-21T05:12:33.031Z,93.11
2019-01-21T05:13:33.021Z,92.96
2019-01-21T05:14:33.011Z,93.01
2019-01-21T05:15:33.001Z,93.22
2019-01-21T05:16:32.991Z,92.80
2019-01-21T05:17:32.981Z,92.58
2019-01-21T05:18:32.970Z,93.11
2019-01-21T05:19:32.960Z,92.80
2019-01-21T05:20:32.948Z,93.11
2019-01-21T05:21:32.936Z,92.90
2019-01-21T05:22:32.937Z,93.01
2019-01-21T05:23:32.917Z,93.22
2019-01-21T05:24:32.907Z,92.80
2019-01-21T05:25:32.902Z,92.90
2019-01-21T05:26:32.890Z,92.69
2019-01-21T05:27:32.874Z,92.90
2019-01-21T05:28:32.869Z,93.01
2019-01-21T05:29:32.869Z,93.01
2019-01-21T05:30:32.850Z,92.80
2019-01-21T05:31:32.832Z,93.11
2019-01-21T05:32:32.825Z,93.22
2019-01-21T05:33:32.813Z,93.11
2019-01-21T05:34:32.801Z,93.43
2019-01-21T05:35:32.792Z,93.22
2019-01-21T05:36:32.782Z,92.80
2019-01-21T05:37:32.769Z,93.22
2019-01-21T05:38:32.762Z,93.01
2019-01-21T05:39:32.748Z,93.26
2019-01-21T05:40:32.740Z,93.01
2019-01-21T05:41:32.728Z,92.84
2019-01-21T05:42:32.720Z,93.15
2019-01-21T05:43:32.706Z,93.15
2019-01-21T05:44:32.704Z,93.89
2019-01-21T05:45:32.687Z,93.89
2019-01-21T05:46:32.674Z,93.05
2019-01-21T05:47:32.664Z,93.15
2019-01-21T05:48:32.655Z,93.79
2019-01-21T05:49:32.647Z,93.89
2019-01-21T05:50:32.635Z,93.89
2019-01-21T05:51:32.623Z,93.79
2019-01-21T05:52:32.612Z,93.89
2019-01-21T05:53:32.604Z,93.37
2019-01-21T05:54:32.593Z,93.57
2019-01-21T05:55:32.581Z,93.57
2019-01-21T05:56:32.574Z,93.47
2019-01-21T05:57:32.559Z,93.47
2019-01-21T05:58:32.550Z,93.57
2019-01-21T05:59:32.547Z,93.15
2019-01-21T06:00:32.530Z,93.79
2019-01-21T06:01:32.522Z,93.89
2019-01-21T06:02:32.511Z,93.57
2019-01-21T06:03:32.496Z,93.79
2019-01-21T06:04:32.486Z,93.68
2019-01-21T06:05:32.479Z,93.68
2019-01-21T06:06:32.470Z,93.89
2019-01-21T06:07:32.455Z,93.19
2019-01-21T06:08:32.448Z,93.68
2019-01-21T06:09:32.435Z,93.09
2019-01-21T06:10:32.426Z,93.79
2019-01-21T06:11:32.418Z,93.73
2019-01-21T06:12:32.450Z,94.04
2019-01-21T06:13:32.391Z,93.99
2019-01-21T06:14:32.382Z,93.19
2019-01-21T06:15:32.370Z,94.15
2019-01-21T06:16:32.359Z,93.62
2019-01-21T06:17:32.349Z,93.57
2019-01-21T06:18:32.340Z,93.41
2019-01-21T06:19:32.331Z,93.93
2019-01-21T06:20:32.323Z,93.73
2019-01-21T06:21:32.313Z,94.04
2019-01-21T06:22:32.299Z,93.73
2019-01-21T06:23:32.288Z,93.73
2019-01-21T06:24:32.277Z,93.93
2019-01-21T06:25:32.269Z,93.41
2019-01-21T06:26:32.266Z,93.62
2019-01-21T06:27:32.247Z,93.73
2019-01-21T06:28:32.235Z,94.15
2019-01-21T06:29:32.225Z,94.04
2019-01-21T06:30:32.213Z,94.04
2019-01-21T06:31:32.204Z,94.10
2019-01-21T06:32:32.193Z,93.93
2019-01-21T06:33:32.184Z,94.04
2019-01-21T06:34:40.660Z,93.89
2019-01-21T06:35:32.163Z,94.04
2019-01-21T06:36:32.154Z,93.41
2019-01-21T06:37:32.141Z,93.73
2019-01-21T06:38:32.131Z,93.47
2019-01-21T06:39:32.120Z,93.57
2019-01-21T06:40:32.109Z,93.83
2019-01-21T06:41:32.100Z,93.51
2019-01-21T06:42:32.088Z,93.19
2019-01-21T06:43:32.078Z,93.73
2019-01-21T06:44:32.069Z,93.62
2019-01-21T06:45:32.056Z,93.51
2019-01-21T06:46:32.046Z,93.41
2019-01-21T06:47:32.036Z,93.41
2019-01-21T06:48:32.025Z,93.51
2019-01-21T06:49:32.015Z,93.41
2019-01-21T06:50:32.002Z,93.30
2019-01-21T06:51:31.997Z,93.73
2019-01-21T06:52:31.986Z,93.55
2019-01-21T06:53:31.972Z,93.41
2019-01-21T06:54:31.964Z,93.55
2019-01-21T06:55:31.953Z,94.15
2019-01-21T06:56:31.944Z,93.77
2019-01-21T06:57:31.935Z,94.82
2019-01-21T06:58:31.926Z,94.15
2019-01-21T06:59:31.910Z,94.29
2019-01-21T07:00:31.898Z,94.15
2019-01-21T07:01:33.282Z,94.19
2019-01-21T07:02:31.878Z,94.15
2019-01-21T07:03:31.867Z,95.09
2019-01-21T07:04:31.857Z,94.04
2019-01-21T07:05:31.850Z,93.73
2019-01-21T07:06:31.836Z,94.19
2019-01-21T07:07:31.826Z,93.93
2019-01-21T07:08:31.817Z,93.77
2019-01-21T07:09:31.807Z,93.77
2019-01-21T07:10:31.794Z,93.87
2019-01-21T07:11:31.786Z,93.83
2019-01-21T07:12:31.775Z,93.93
2019-01-21T07:13:31.763Z,93.98
2019-01-21T07:14:31.751Z,94.19
2019-01-21T07:15:31.741Z,94.51
2019-01-21T07:16:31.730Z,93.77
2019-01-21T07:17:31.726Z,94.61
2019-01-21T07:18:31.709Z,94.93
2019-01-21T07:19:31.700Z,94.82
2019-01-21T07:20:31.695Z,94.82
2019-01-21T07:21:31.679Z,94.82
2019-01-21T07:22:31.671Z,94.93
2019-01-21T07:23:31.657Z,94.86
2019-01-21T07:24:31.656Z,94.93
2019-01-21T07:25:31.637Z,95.14
2019-01-21T07:26:31.625Z,94.93
2019-01-21T07:27:31.616Z,94.86
2019-01-21T07:28:31.605Z,94.82
2019-01-21T07:29:31.595Z,95.24
2019-01-21T07:30:31.584Z,94.82
2019-01-21T07:31:31.577Z,95.35
2019-01-21T07:32:31.562Z,95.56
2019-01-21T07:33:31.552Z,95.14
2019-01-21T07:34:31.541Z,94.71
2019-01-21T07:35:31.540Z,95.03
2019-01-21T07:36:31.520Z,95.03
2019-01-21T07:37:31.511Z,95.03
2019-01-21T07:38:31.501Z,95.24
2019-01-21T07:39:33.819Z,94.99
2019-01-21T07:40:31.481Z,94.71
2019-01-21T07:41:31.467Z,95.03
2019-01-21T07:42:31.461Z,93.77
2019-01-21T07:43:31.453Z,93.66
2019-01-21T07:44:31.439Z,94.08
2019-01-21T07:45:31.430Z,94.29
2019-01-21T07:46:31.419Z,94.08
2019-01-21T07:47:31.405Z,94.08
2019-01-21T07:48:31.398Z,94.19
2019-01-21T07:49:31.384Z,94.55
2019-01-21T07:50:31.374Z,95.29
2019-01-21T07:51:31.362Z,94.82
2019-01-21T07:52:31.365Z,94.86
2019-01-21T07:53:31.343Z,94.82
2019-01-21T07:54:31.332Z,94.61
2019-01-21T07:55:31.322Z,95.03
2019-01-21T07:56:31.312Z,94.61
2019-01-21T07:57:31.304Z,94.71
2019-01-21T07:58:31.291Z,94.51
2019-01-21T07:59:31.280Z,94.93
2019-01-21T08:00:31.269Z,94.93
2019-01-21T08:01:31.263Z,94.93
2019-01-21T08:02:31.247Z,94.71
2019-01-21T08:03:31.241Z,94.71
2019-01-21T08:04:31.228Z,94.93
2019-01-21T08:05:31.217Z,95.14
2019-01-21T08:06:31.207Z,94.57
2019-01-21T08:07:31.195Z,93.98
2019-01-21T08:08:31.190Z,95.45
2019-01-21T08:09:31.178Z,94.82
2019-01-21T08:10:31.166Z,94.15
2019-01-21T08:11:31.157Z,93.87
2019-01-21T08:12:31.146Z,94.19
2019-01-21T08:13:31.132Z,94.08
2019-01-21T08:14:31.123Z,94.08
2019-01-21T08:15:31.111Z,93.98
2019-01-21T08:16:31.108Z,94.19
2019-01-21T08:17:31.089Z,93.77
2019-01-21T08:18:31.080Z,94.23
2019-01-21T08:19:31.070Z,93.98
2019-01-21T08:20:31.064Z,94.97
2019-01-21T08:21:31.050Z,95.07
2019-01-21T08:22:31.039Z,94.65
2019-01-21T08:23:31.027Z,94.71
2019-01-21T08:24:31.017Z,94.76
2019-01-21T08:25:31.015Z,94.86
2019-01-21T08:26:30.995Z,94.93
2019-01-21T08:27:30.985Z,94.76
2019-01-21T08:28:30.980Z,94.86
2019-01-21T08:29:30.964Z,94.71
2019-01-21T08:30:30.955Z,95.03
2019-01-21T08:31:30.943Z,94.71
2019-01-21T08:32:30.936Z,94.93
2019-01-21T08:33:30.923Z,95.14
2019-01-21T08:34:30.914Z,94.93
2019-01-21T08:35:30.903Z,94.89
2019-01-21T08:36:30.891Z,94.99
2019-01-21T08:37:30.881Z,94.19
2019-01-21T08:38:30.869Z,95.14
2019-01-21T08:39:30.860Z,94.71
2019-01-21T08:40:30.851Z,95.03
2019-01-21T08:41:30.840Z,94.93
2019-01-21T08:42:30.828Z,95.03
2019-01-21T08:43:30.817Z,94.93
2019-01-21T08:44:30.806Z,94.71
2019-01-21T08:45:30.799Z,94.93
2019-01-21T08:46:30.788Z,94.78
2019-01-21T08:47:30.776Z,93.93
2019-01-21T08:48:30.766Z,94.15
2019-01-21T08:49:30.919Z,93.62
2019-01-21T08:50:30.746Z,93.77
2019-01-21T08:51:30.734Z,93.98
2019-01-21T08:52:30.724Z,93.83
2019-01-21T08:53:30.712Z,94.29
2019-01-21T08:54:30.703Z,94.08
2019-01-21T08:55:30.696Z,93.77
2019-01-21T08:56:30.683Z,95.14
2019-01-21T08:57:30.675Z,94.89
2019-01-21T08:58:30.672Z,94.78
2019-01-21T08:59:30.652Z,94.04
2019-01-21T09:00:30.641Z,94.19
2019-01-21T09:01:30.629Z,94.67
2019-01-21T09:02:30.622Z,94.89
2019-01-21T09:03:30.610Z,94.46
2019-01-21T09:04:30.600Z,94.89
2019-01-21T09:05:30.587Z,94.61
2019-01-21T09:06:30.579Z,95.14
2019-01-21T09:07:30.566Z,95.31
2019-01-21T09:08:30.558Z,95.20
2019-01-21T09:09:30.548Z,93.93
2019-01-21T09:10:30.538Z,94.25
2019-01-21T09:11:30.526Z,94.04
2019-01-21T09:12:30.527Z,93.55
2019-01-21T09:13:30.505Z,93.87
2019-01-21T09:14:30.495Z,93.34
2019-01-21T09:15:30.482Z,93.73
2019-01-21T09:16:30.478Z,93.62
2019-01-21T09:17:30.487Z,93.98
2019-01-21T09:18:30.453Z,94.15
2019-01-21T09:19:30.451Z,93.62
2019-01-21T09:20:30.431Z,93.51
2019-01-21T09:21:30.426Z,93.41
2019-01-21T09:22:30.409Z,94.04
2019-01-21T09:23:30.397Z,94.61
2019-01-21T09:24:30.388Z,94.15
2019-01-21T09:25:30.380Z,94.15
2019-01-21T09:26:30.371Z,94.04
2019-01-21T09:27:30.358Z,93.83
2019-01-21T09:28:30.348Z,94.25
2019-01-21T09:29:30.335Z,93.93
2019-01-21T09:30:30.327Z,93.89
2019-01-21T09:31:30.317Z,93.37
2019-01-21T09:32:30.308Z,93.89
2019-01-21T09:33:30.295Z,93.05
2019-01-21T09:34:30.283Z,92.88
2019-01-21T09:35:30.273Z,92.84
2019-01-21T09:36:30.315Z,92.99
2019-01-21T09:37:30.256Z,93.05
2019-01-21T09:38:30.250Z,93.30
2019-01-21T09:39:30.231Z,92.63
2019-01-21T09:40:30.221Z,92.94
2019-01-21T09:41:30.211Z,93.30
2019-01-21T09:42:30.201Z,93.57
2019-01-21T09:43:30.250Z,93.73
2019-01-21T09:44:30.187Z,93.79
2019-01-21T09:45:30.172Z,93.79
2019-01-21T09:46:30.185Z,93.15
2019-01-21T09:47:30.149Z,93.79
2019-01-21T09:48:30.137Z,93.89
2019-01-21T09:49:30.129Z,93.57
2019-01-21T09:50:30.118Z,93.37
2019-01-21T09:51:30.105Z,93.37
2019-01-21T09:52:30.106Z,93.89
2019-01-21T09:53:30.087Z,94.21
2019-01-21T09:54:30.074Z,93.79
2019-01-21T09:55:30.067Z,93.37
2019-01-21T09:56:30.060Z,93.85
2019-01-21T09:57:30.045Z,93.85
2019-01-21T09:58:30.037Z,92.90
2019-01-21T09:59:30.022Z,93.22
2019-01-21T10:00:30.014Z,93.01
2019-01-21T10:01:30.003Z,92.58
2019-01-21T10:02:29.991Z,92.90
2019-01-21T10:03:29.982Z,93.11
2019-01-21T10:04:29.975Z,93.26
2019-01-21T10:05:29.959Z,92.90
2019-01-21T10:06:29.950Z,92.90
2019-01-21T10:07:29.976Z,92.90
2019-01-21T10:08:29.928Z,93.22
2019-01-21T10:09:29.932Z,93.22
2019-01-21T10:10:29.910Z,92.94
2019-01-21T10:11:29.898Z,93.05
2019-01-21T10:12:29.889Z,93.11
2019-01-21T10:13:30.128Z,93.05
2019-01-21T10:14:29.866Z,92.94
2019-01-21T10:15:30.103Z,93.99
2019-01-21T10:16:29.848Z,93.57
2019-01-21T10:17:29.833Z,93.68
2019-01-21T10:18:29.824Z,93.85
2019-01-21T10:19:29.819Z,93.53
2019-01-21T10:20:29.805Z,92.90
2019-01-21T10:21:29.794Z,93.22
2019-01-21T10:22:29.794Z,93.11
2019-01-21T10:23:29.772Z,91.96
2019-01-21T10:24:29.762Z,92.90
2019-01-21T10:25:29.757Z,93.32
2019-01-21T10:26:29.757Z,92.65
2019-01-21T10:27:29.732Z,92.38
2019-01-21T10:28:29.898Z,92.16
2019-01-21T10:29:29.709Z,92.58
2019-01-21T10:30:29.702Z,92.33
2019-01-21T10:31:29.692Z,92.33
2019-01-21T10:32:29.678Z,92.02
2019-01-21T10:33:29.667Z,91.74
2019-01-21T10:34:29.657Z,92.58
2019-01-21T10:35:29.646Z,92.38
2019-01-21T10:36:29.919Z,92.33
2019-01-21T10:37:29.687Z,92.58
2019-01-21T10:38:29.617Z,92.23
2019-01-21T10:39:29.605Z,91.81
2019-01-21T10:40:29.594Z,92.12
2019-01-21T10:41:29.582Z,92.23
2019-01-21T10:42:29.573Z,91.70
2019-01-21T10:43:29.566Z,91.35
2019-01-21T10:44:29.554Z,91.70
2019-01-21T10:45:29.541Z,91.28
2019-01-21T10:46:29.538Z,90.75
2019-01-21T10:47:29.524Z,90.86
2019-01-21T10:48:29.511Z,91.39
2019-01-21T10:49:29.656Z,90.97
2019-01-21T10:50:29.495Z,91.81
2019-01-21T10:51:29.482Z,92.23
2019-01-21T10:52:29.470Z,92.65
2019-01-21T10:53:29.458Z,92.76
2019-01-21T10:54:29.449Z,91.96
2019-01-21T10:55:29.442Z,91.39
2019-01-21T10:56:29.427Z,92.54
2019-01-21T10:57:29.417Z,91.91
2019-01-21T10:58:29.407Z,91.07
2019-01-21T10:59:29.396Z,91.81
2019-01-21T11:00:29.392Z,91.49
2019-01-21T11:01:29.389Z,92.12
2019-01-21T11:02:29.364Z,91.49
2019-01-21T11:03:29.354Z,91.81
2019-01-21T11:04:29.396Z,90.97
2019-01-21T11:05:29.698Z,91.35
2019-01-21T11:06:29.751Z,91.35
2019-01-21T11:07:29.312Z,91.60
2019-01-21T11:08:29.312Z,91.70
2019-01-21T11:09:29.293Z,91.70
2019-01-21T11:10:29.284Z,91.70
2019-01-21T11:11:29.277Z,91.60
2019-01-21T11:12:29.260Z,91.55
2019-01-21T11:13:29.253Z,91.49
2019-01-21T11:14:29.240Z,91.24
2019-01-21T11:15:29.230Z,91.17
2019-01-21T11:16:29.221Z,90.65
2019-01-21T11:17:29.209Z,90.50
2019-01-21T11:18:29.199Z,90.61
2019-01-21T11:19:29.187Z,91.13
2019-01-21T11:20:29.178Z,90.29
2019-01-21T11:21:29.165Z,90.08
2019-01-21T11:22:29.155Z,90.12
2019-01-21T11:23:29.144Z,90.19
2019-01-21T11:24:29.146Z,90.61
2019-01-21T11:25:29.125Z,90.19
2019-01-21T11:26:29.112Z,90.61
2019-01-21T11:27:29.106Z,90.40
2019-01-21T11:28:29.093Z,90.61
2019-01-21T11:29:29.084Z,90.29
2019-01-21T11:30:29.072Z,90.40
2019-01-21T11:31:29.061Z,91.13
2019-01-21T11:32:29.051Z,91.24
2019-01-21T11:33:29.049Z,90.56
2019-01-21T11:34:29.033Z,90.50
2019-01-21T11:35:29.023Z,90.36
2019-01-21T11:36:29.015Z,89.34
2019-01-21T11:37:28.999Z,89.56
2019-01-21T11:38:28.988Z,89.56
2019-01-21T11:39:28.979Z,90.19
2019-01-21T11:40:28.980Z,90.08
2019-01-21T11:41:28.967Z,90.08
2019-01-21T11:42:28.951Z,89.83
2019-01-21T11:43:29.364Z,89.72
2019-01-21T11:44:28.925Z,89.62
2019-01-21T11:45:28.916Z,90.36
2019-01-21T11:46:28.904Z,89.51
2019-01-21T11:47:28.897Z,89.20
2019-01-21T11:48:28.884Z,89.83
2019-01-21T11:49:28.876Z,90.14
2019-01-21T11:50:28.864Z,90.14
2019-01-21T11:51:28.856Z,90.04
2019-01-21T11:52:28.843Z,90.50
2019-01-21T11:53:28.834Z,91.13
2019-01-21T11:54:28.822Z,91.72
2019-01-21T11:55:28.814Z,90.78
2019-01-21T11:56:28.801Z,90.56
2019-01-21T11:57:28.790Z,90.56
2019-01-21T11:58:28.779Z,90.14
2019-01-21T11:59:28.775Z,89.94
2019-01-21T12:00:28.759Z,90.19
2019-01-21T12:01:28.749Z,89.87
2019-01-21T12:02:28.737Z,89.76
2019-01-21T12:03:28.728Z,90.14
2019-01-21T12:04:28.718Z,89.62
2019-01-21T12:05:28.706Z,89.30
2019-01-21T12:06:28.697Z,89.45
2019-01-21T12:07:28.695Z,89.56
2019-01-21T12:08:28.674Z,89.34
2019-01-21T12:09:28.666Z,89.98
2019-01-21T12:10:28.652Z,90.19
2019-01-21T12:11:28.668Z,90.61
2019-01-21T12:12:28.632Z,90.08
2019-01-21T12:13:28.625Z,90.33
2019-01-21T12:14:28.615Z,90.33
2019-01-21T12:15:28.601Z,90.44
2019-01-21T12:16:28.607Z,90.19
2019-01-21T12:17:28.584Z,89.98
2019-01-21T12:18:28.574Z,89.41
2019-01-21T12:19:28.560Z,89.24
2019-01-21T12:20:28.551Z,89.34
2019-01-21T12:21:28.538Z,89.41
2019-01-21T12:22:28.547Z,89.20
2019-01-21T12:23:28.521Z,88.67
2019-01-21T12:24:28.513Z,89.09
2019-01-21T12:25:28.498Z,88.35
2019-01-21T12:26:28.488Z,86.95
2019-01-21T12:27:28.486Z,87.33
2019-01-21T12:28:28.466Z,87.12
2019-01-21T12:29:28.467Z,86.11
2019-01-21T12:30:28.445Z,87.37
2019-01-21T12:31:28.434Z,86.11
2019-01-21T12:32:28.427Z,87.05
2019-01-21T12:33:28.415Z,87.23
2019-01-21T12:34:28.402Z,86.03
2019-01-21T12:35:28.396Z,84.42
2019-01-21T12:36:28.383Z,83.75
2019-01-21T12:37:28.370Z,83.58
2019-01-21T12:38:28.360Z,83.58
2019-01-21T12:39:28.351Z,84.63
2019-01-21T12:40:28.340Z,81.99
2019-01-21T12:41:28.331Z,77.45
2019-01-21T12:42:28.335Z,75.22
2019-01-21T12:43:28.308Z,75.57
2019-01-21T12:44:28.297Z,77.97
2019-01-21T12:45:28.289Z,79.52
2019-01-21T12:46:28.279Z,80.38
2019-01-21T12:47:28.266Z,78.39
2019-01-21T12:48:28.258Z,80.18
2019-01-21T12:49:28.247Z,82.04
2019-01-21T12:50:28.236Z,84.08
2019-01-21T12:51:28.228Z,84.95
2019-01-21T12:52:28.216Z,85.90